sensor_id;sensor_type;location;lat;lon;timestamp;P1;durP1;ratioP1;P2;durP2;ratioP2
19599;SDS011;9947;57.722;12.012;2022-12-18T00:02:11;66.27;;;23.43;;
19599;SDS011;9947;57.722;12.012;2022-12-18T00:04:40;80.40;;;24.83;;
19599;SDS011;9947;57.722;12.012;2022-12-18T00:07:09;71.00;;;24.43;;
19599;SDS011;9947;57.722;12.012;2022-12-18T00:09:38;73.80;;;23.60;;
19599;SDS011;9947;57.722;12.012;2022-12-18T00:12:05;80.80;;;24.93;;
19599;SDS011;9947;57.722;12.012;2022-12-18T00:14:33;69.80;;;23.03;;
19599;SDS011;9947;57.722;12.012;2022-12-18T00:17:00;85.30;;;25.37;;
19599;SDS011;9947;57.722;12.012;2022-12-18T00:19:30;74.23;;;23.60;;
19599;SDS011;9947;57.722;12.012;2022-12-18T00:21:57;70.17;;;24.93;;
19599;SDS011;9947;57.722;12.012;2022-12-18T00:24:25;71.60;;;24.37;;
19599;SDS011;9947;57.722;12.012;2022-12-18T00:26:52;74.00;;;25.27;;
19599;SDS011;9947;57.722;12.012;2022-12-18T00:29:19;73.80;;;24.10;;
19599;SDS011;9947;57.722;12.012;2022-12-18T00:31:46;67.13;;;22.90;;
19599;SDS011;9947;57.722;12.012;2022-12-18T00:34:13;59.10;;;21.00;;
19599;SDS011;9947;57.722;12.012;2022-12-18T00:36:40;67.87;;;21.97;;
19599;SDS011;9947;57.722;12.012;2022-12-18T00:39:08;59.90;;;21.77;;
19599;SDS011;9947;57.722;12.012;2022-12-18T00:41:37;53.93;;;19.93;;
19599;SDS011;9947;57.722;12.012;2022-12-18T00:44:23;59.53;;;19.63;;
19599;SDS011;9947;57.722;12.012;2022-12-18T00:46:50;60.17;;;19.97;;
19599;SDS011;9947;57.722;12.012;2022-12-18T00:49:17;53.53;;;19.70;;
19599;SDS011;9947;57.722;12.012;2022-12-18T00:51:45;53.33;;;19.93;;
19599;SDS011;9947;57.722;12.012;2022-12-18T00:54:13;47.67;;;18.80;;
19599;SDS011;9947;57.722;12.012;2022-12-18T00:56:41;50.67;;;19.07;;
19599;SDS011;9947;57.722;12.012;2022-12-18T00:59:08;50.43;;;18.57;;
19599;SDS011;9947;57.722;12.012;2022-12-18T01:01:38;57.63;;;20.33;;
19599;SDS011;9947;57.722;12.012;2022-12-18T01:04:05;54.07;;;20.77;;
19599;SDS011;9947;57.722;12.012;2022-12-18T01:06:32;60.83;;;20.33;;
19599;SDS011;9947;57.722;12.012;2022-12-18T01:08:59;58.33;;;19.27;;
19599;SDS011;9947;57.722;12.012;2022-12-18T01:11:26;51.40;;;19.30;;
19599;SDS011;9947;57.722;12.012;2022-12-18T01:13:54;54.03;;;21.00;;
19599;SDS011;9947;57.722;12.012;2022-12-18T01:16:21;55.07;;;19.53;;
19599;SDS011;9947;57.722;12.012;2022-12-18T01:18:51;55.33;;;20.03;;
19599;SDS011;9947;57.722;12.012;2022-12-18T01:21:19;51.33;;;19.33;;
19599;SDS011;9947;57.722;12.012;2022-12-18T01:23:50;53.40;;;19.63;;
19599;SDS011;9947;57.722;12.012;2022-12-18T01:26:18;49.87;;;18.60;;
19599;SDS011;9947;57.722;12.012;2022-12-18T01:28:45;49.03;;;18.93;;
19599;SDS011;9947;57.722;12.012;2022-12-18T01:31:15;52.60;;;19.00;;
19599;SDS011;9947;57.722;12.012;2022-12-18T01:33:44;51.53;;;19.33;;
19599;SDS011;9947;57.722;12.012;2022-12-18T01:36:17;44.83;;;17.13;;
19599;SDS011;9947;57.722;12.012;2022-12-18T01:38:46;48.13;;;17.47;;
19599;SDS011;9947;57.722;12.012;2022-12-18T01:41:14;43.97;;;17.33;;
19599;SDS011;9947;57.722;12.012;2022-12-18T01:43:46;44.30;;;18.03;;
19599;SDS011;9947;57.722;12.012;2022-12-18T01:46:19;44.93;;;18.13;;
19599;SDS011;9947;57.722;12.012;2022-12-18T01:48:48;53.43;;;18.67;;
19599;SDS011;9947;57.722;12.012;2022-12-18T01:51:17;48.50;;;18.03;;
19599;SDS011;9947;57.722;12.012;2022-12-18T01:53:44;48.60;;;18.20;;
19599;SDS011;9947;57.722;12.012;2022-12-18T01:56:14;50.57;;;18.37;;
19599;SDS011;9947;57.722;12.012;2022-12-18T01:58:45;54.03;;;19.87;;
19599;SDS011;9947;57.722;12.012;2022-12-18T02:01:19;54.63;;;18.97;;
19599;SDS011;9947;57.722;12.012;2022-12-18T02:03:47;52.67;;;18.00;;
19599;SDS011;9947;57.722;12.012;2022-12-18T02:06:15;48.67;;;17.50;;
19599;SDS011;9947;57.722;12.012;2022-12-18T02:08:54;43.60;;;17.00;;
19599;SDS011;9947;57.722;12.012;2022-12-18T02:11:32;43.03;;;16.53;;
19599;SDS011;9947;57.722;12.012;2022-12-18T02:14:10;40.13;;;15.07;;
19599;SDS011;9947;57.722;12.012;2022-12-18T02:16:48;42.33;;;15.50;;
19599;SDS011;9947;57.722;12.012;2022-12-18T02:19:23;42.03;;;15.33;;
19599;SDS011;9947;57.722;12.012;2022-12-18T02:22:07;54.53;;;17.77;;
19599;SDS011;9947;57.722;12.012;2022-12-18T02:24:47;52.07;;;18.63;;
19599;SDS011;9947;57.722;12.012;2022-12-18T02:27:26;59.93;;;19.83;;
19599;SDS011;9947;57.722;12.012;2022-12-18T02:29:57;66.27;;;20.53;;
19599;SDS011;9947;57.722;12.012;2022-12-18T02:32:27;67.17;;;20.90;;
19599;SDS011;9947;57.722;12.012;2022-12-18T02:34:57;74.27;;;22.73;;
19599;SDS011;9947;57.722;12.012;2022-12-18T02:37:27;67.57;;;20.80;;
19599;SDS011;9947;57.722;12.012;2022-12-18T02:39:56;66.03;;;22.33;;
19599;SDS011;9947;57.722;12.012;2022-12-18T02:42:27;66.30;;;20.87;;
19599;SDS011;9947;57.722;12.012;2022-12-18T02:44:54;71.37;;;21.03;;
19599;SDS011;9947;57.722;12.012;2022-12-18T02:47:22;66.37;;;20.93;;
19599;SDS011;9947;57.722;12.012;2022-12-18T02:49:57;61.57;;;20.07;;
19599;SDS011;9947;57.722;12.012;2022-12-18T02:52:31;71.60;;;20.47;;
19599;SDS011;9947;57.722;12.012;2022-12-18T02:55:08;56.87;;;18.30;;
19599;SDS011;9947;57.722;12.012;2022-12-18T02:57:49;58.97;;;18.73;;
19599;SDS011;9947;57.722;12.012;2022-12-18T03:00:21;57.67;;;17.73;;
19599;SDS011;9947;57.722;12.012;2022-12-18T03:02:54;60.63;;;18.20;;
19599;SDS011;9947;57.722;12.012;2022-12-18T03:05:28;64.83;;;17.37;;
19599;SDS011;9947;57.722;12.012;2022-12-18T03:08:00;53.37;;;16.77;;
19599;SDS011;9947;57.722;12.012;2022-12-18T03:10:31;58.43;;;16.97;;
19599;SDS011;9947;57.722;12.012;2022-12-18T03:13:03;53.90;;;17.20;;
19599;SDS011;9947;57.722;12.012;2022-12-18T03:15:34;57.80;;;18.90;;
19599;SDS011;9947;57.722;12.012;2022-12-18T03:18:04;52.90;;;17.80;;
19599;SDS011;9947;57.722;12.012;2022-12-18T03:20:36;55.53;;;18.57;;
19599;SDS011;9947;57.722;12.012;2022-12-18T03:23:08;59.67;;;17.83;;
19599;SDS011;9947;57.722;12.012;2022-12-18T03:25:38;61.67;;;18.47;;
19599;SDS011;9947;57.722;12.012;2022-12-18T03:28:09;57.40;;;18.20;;
19599;SDS011;9947;57.722;12.012;2022-12-18T03:30:41;66.50;;;19.67;;
19599;SDS011;9947;57.722;12.012;2022-12-18T03:33:13;61.90;;;19.97;;
19599;SDS011;9947;57.722;12.012;2022-12-18T03:35:44;59.53;;;17.53;;
19599;SDS011;9947;57.722;12.012;2022-12-18T03:38:12;63.20;;;18.37;;
19599;SDS011;9947;57.722;12.012;2022-12-18T03:40:44;58.77;;;18.10;;
19599;SDS011;9947;57.722;12.012;2022-12-18T03:43:20;59.50;;;17.47;;
19599;SDS011;9947;57.722;12.012;2022-12-18T03:46:02;58.50;;;18.60;;
19599;SDS011;9947;57.722;12.012;2022-12-18T03:48:35;64.20;;;19.57;;
19599;SDS011;9947;57.722;12.012;2022-12-18T03:51:09;53.50;;;18.10;;
19599;SDS011;9947;57.722;12.012;2022-12-18T03:53:41;63.67;;;18.77;;
19599;SDS011;9947;57.722;12.012;2022-12-18T03:56:14;57.40;;;18.53;;
19599;SDS011;9947;57.722;12.012;2022-12-18T03:58:44;55.63;;;18.30;;
19599;SDS011;9947;57.722;12.012;2022-12-18T04:01:14;63.23;;;18.93;;
19599;SDS011;9947;57.722;12.012;2022-12-18T04:03:43;57.40;;;18.20;;
19599;SDS011;9947;57.722;12.012;2022-12-18T04:06:12;57.63;;;18.87;;
19599;SDS011;9947;57.722;12.012;2022-12-18T04:08:41;62.63;;;20.13;;
19599;SDS011;9947;57.722;12.012;2022-12-18T04:11:09;67.27;;;19.40;;
19599;SDS011;9947;57.722;12.012;2022-12-18T04:13:37;60.93;;;19.53;;
19599;SDS011;9947;57.722;12.012;2022-12-18T04:16:06;66.97;;;18.57;;
19599;SDS011;9947;57.722;12.012;2022-12-18T04:18:34;60.70;;;18.47;;
19599;SDS011;9947;57.722;12.012;2022-12-18T04:21:02;51.90;;;18.87;;
19599;SDS011;9947;57.722;12.012;2022-12-18T04:23:32;65.93;;;18.50;;
19599;SDS011;9947;57.722;12.012;2022-12-18T04:25:59;62.50;;;17.83;;
19599;SDS011;9947;57.722;12.012;2022-12-18T04:28:25;58.03;;;18.97;;
19599;SDS011;9947;57.722;12.012;2022-12-18T04:30:52;50.93;;;16.03;;
19599;SDS011;9947;57.722;12.012;2022-12-18T04:33:20;50.50;;;17.20;;
19599;SDS011;9947;57.722;12.012;2022-12-18T04:35:47;57.10;;;17.37;;
19599;SDS011;9947;57.722;12.012;2022-12-18T04:38:14;49.97;;;17.87;;
19599;SDS011;9947;57.722;12.012;2022-12-18T04:40:41;51.60;;;17.03;;
19599;SDS011;9947;57.722;12.012;2022-12-18T04:43:08;60.03;;;17.10;;
19599;SDS011;9947;57.722;12.012;2022-12-18T04:45:35;47.37;;;16.37;;
19599;SDS011;9947;57.722;12.012;2022-12-18T04:48:03;56.17;;;16.43;;
19599;SDS011;9947;57.722;12.012;2022-12-18T04:50:33;50.83;;;17.00;;
19599;SDS011;9947;57.722;12.012;2022-12-18T04:53:00;48.70;;;16.67;;
19599;SDS011;9947;57.722;12.012;2022-12-18T04:55:28;54.73;;;16.97;;
19599;SDS011;9947;57.722;12.012;2022-12-18T04:57:55;39.47;;;14.33;;
19599;SDS011;9947;57.722;12.012;2022-12-18T05:00:22;43.43;;;15.00;;
19599;SDS011;9947;57.722;12.012;2022-12-18T05:02:49;44.47;;;14.73;;
19599;SDS011;9947;57.722;12.012;2022-12-18T05:05:16;43.20;;;15.13;;
19599;SDS011;9947;57.722;12.012;2022-12-18T05:07:44;44.20;;;13.37;;
19599;SDS011;9947;57.722;12.012;2022-12-18T05:10:11;39.53;;;13.87;;
19599;SDS011;9947;57.722;12.012;2022-12-18T05:12:38;38.90;;;13.77;;
19599;SDS011;9947;57.722;12.012;2022-12-18T05:15:23;32.53;;;11.47;;
19599;SDS011;9947;57.722;12.012;2022-12-18T05:17:50;32.60;;;11.00;;
19599;SDS011;9947;57.722;12.012;2022-12-18T05:20:17;36.30;;;12.23;;
19599;SDS011;9947;57.722;12.012;2022-12-18T05:22:46;31.57;;;10.07;;
19599;SDS011;9947;57.722;12.012;2022-12-18T05:25:13;34.00;;;12.13;;
19599;SDS011;9947;57.722;12.012;2022-12-18T05:27:40;33.20;;;10.73;;
19599;SDS011;9947;57.722;12.012;2022-12-18T05:30:08;33.90;;;11.80;;
19599;SDS011;9947;57.722;12.012;2022-12-18T05:32:35;40.57;;;11.50;;
19599;SDS011;9947;57.722;12.012;2022-12-18T05:35:05;27.43;;;9.87;;
19599;SDS011;9947;57.722;12.012;2022-12-18T05:37:33;32.80;;;9.30;;
19599;SDS011;9947;57.722;12.012;2022-12-18T05:40:02;29.83;;;9.30;;
19599;SDS011;9947;57.722;12.012;2022-12-18T05:42:30;26.17;;;8.90;;
19599;SDS011;9947;57.722;12.012;2022-12-18T05:44:57;26.87;;;9.10;;
19599;SDS011;9947;57.722;12.012;2022-12-18T05:47:28;26.97;;;8.13;;
19599;SDS011;9947;57.722;12.012;2022-12-18T05:49:55;26.53;;;8.43;;
19599;SDS011;9947;57.722;12.012;2022-12-18T05:52:24;22.23;;;8.57;;
19599;SDS011;9947;57.722;12.012;2022-12-18T05:54:53;28.60;;;8.87;;
19599;SDS011;9947;57.722;12.012;2022-12-18T05:57:22;18.13;;;8.70;;
19599;SDS011;9947;57.722;12.012;2022-12-18T05:59:49;19.23;;;8.03;;
19599;SDS011;9947;57.722;12.012;2022-12-18T06:02:16;26.33;;;8.37;;
19599;SDS011;9947;57.722;12.012;2022-12-18T06:04:46;26.40;;;7.70;;
19599;SDS011;9947;57.722;12.012;2022-12-18T06:07:12;23.03;;;8.03;;
19599;SDS011;9947;57.722;12.012;2022-12-18T06:09:39;26.17;;;8.13;;
19599;SDS011;9947;57.722;12.012;2022-12-18T06:12:06;29.20;;;9.07;;
19599;SDS011;9947;57.722;12.012;2022-12-18T06:14:37;21.23;;;7.80;;
19599;SDS011;9947;57.722;12.012;2022-12-18T06:17:04;22.10;;;8.73;;
19599;SDS011;9947;57.722;12.012;2022-12-18T06:19:31;19.30;;;8.23;;
19599;SDS011;9947;57.722;12.012;2022-12-18T06:21:58;24.40;;;7.67;;
19599;SDS011;9947;57.722;12.012;2022-12-18T06:24:24;25.30;;;8.47;;
19599;SDS011;9947;57.722;12.012;2022-12-18T06:26:51;21.80;;;7.87;;
19599;SDS011;9947;57.722;12.012;2022-12-18T06:29:18;23.33;;;8.23;;
19599;SDS011;9947;57.722;12.012;2022-12-18T06:31:46;31.43;;;8.13;;
19599;SDS011;9947;57.722;12.012;2022-12-18T06:34:13;18.00;;;7.37;;
19599;SDS011;9947;57.722;12.012;2022-12-18T06:36:40;17.90;;;7.53;;
19599;SDS011;9947;57.722;12.012;2022-12-18T06:39:07;20.10;;;7.53;;
19599;SDS011;9947;57.722;12.012;2022-12-18T06:41:34;20.83;;;7.93;;
19599;SDS011;9947;57.722;12.012;2022-12-18T06:44:03;20.77;;;7.67;;
19599;SDS011;9947;57.722;12.012;2022-12-18T06:46:30;18.70;;;7.27;;
19599;SDS011;9947;57.722;12.012;2022-12-18T06:49:02;16.77;;;6.97;;
19599;SDS011;9947;57.722;12.012;2022-12-18T06:51:29;19.90;;;6.60;;
19599;SDS011;9947;57.722;12.012;2022-12-18T06:53:56;19.77;;;7.37;;
19599;SDS011;9947;57.722;12.012;2022-12-18T06:56:23;18.37;;;6.97;;
19599;SDS011;9947;57.722;12.012;2022-12-18T06:58:50;19.23;;;6.53;;
19599;SDS011;9947;57.722;12.012;2022-12-18T07:01:17;16.63;;;7.03;;
19599;SDS011;9947;57.722;12.012;2022-12-18T07:03:44;20.33;;;6.80;;
19599;SDS011;9947;57.722;12.012;2022-12-18T07:06:16;19.43;;;7.37;;
19599;SDS011;9947;57.722;12.012;2022-12-18T07:08:45;23.63;;;7.00;;
19599;SDS011;9947;57.722;12.012;2022-12-18T07:11:13;15.73;;;6.63;;
19599;SDS011;9947;57.722;12.012;2022-12-18T07:13:40;18.73;;;6.47;;
19599;SDS011;9947;57.722;12.012;2022-12-18T07:16:08;17.83;;;6.97;;
19599;SDS011;9947;57.722;12.012;2022-12-18T07:18:36;17.47;;;6.17;;
19599;SDS011;9947;57.722;12.012;2022-12-18T07:21:04;21.60;;;7.10;;
19599;SDS011;9947;57.722;12.012;2022-12-18T07:23:33;19.00;;;6.27;;
19599;SDS011;9947;57.722;12.012;2022-12-18T07:26:03;18.03;;;6.17;;
19599;SDS011;9947;57.722;12.012;2022-12-18T07:28:31;14.40;;;5.73;;
19599;SDS011;9947;57.722;12.012;2022-12-18T07:31:02;24.07;;;5.83;;
19599;SDS011;9947;57.722;12.012;2022-12-18T07:33:32;21.10;;;6.30;;
19599;SDS011;9947;57.722;12.012;2022-12-18T07:36:02;17.10;;;6.37;;
19599;SDS011;9947;57.722;12.012;2022-12-18T07:38:30;14.33;;;5.90;;
19599;SDS011;9947;57.722;12.012;2022-12-18T07:41:01;20.20;;;6.87;;
19599;SDS011;9947;57.722;12.012;2022-12-18T07:43:28;24.40;;;5.77;;
19599;SDS011;9947;57.722;12.012;2022-12-18T07:45:55;15.90;;;5.57;;
19599;SDS011;9947;57.722;12.012;2022-12-18T07:48:24;30.90;;;6.10;;
19599;SDS011;9947;57.722;12.012;2022-12-18T07:50:51;14.37;;;5.10;;
19599;SDS011;9947;57.722;12.012;2022-12-18T07:53:19;16.63;;;5.83;;
19599;SDS011;9947;57.722;12.012;2022-12-18T07:55:45;20.63;;;6.20;;
19599;SDS011;9947;57.722;12.012;2022-12-18T07:58:14;18.07;;;5.40;;
19599;SDS011;9947;57.722;12.012;2022-12-18T08:00:41;14.80;;;5.53;;
19599;SDS011;9947;57.722;12.012;2022-12-18T08:03:08;18.97;;;5.50;;
19599;SDS011;9947;57.722;12.012;2022-12-18T08:05:34;14.07;;;5.83;;
19599;SDS011;9947;57.722;12.012;2022-12-18T08:08:01;22.37;;;5.80;;
19599;SDS011;9947;57.722;12.012;2022-12-18T08:10:29;21.47;;;7.30;;
19599;SDS011;9947;57.722;12.012;2022-12-18T08:12:56;20.63;;;6.23;;
19599;SDS011;9947;57.722;12.012;2022-12-18T08:15:26;17.37;;;6.30;;
19599;SDS011;9947;57.722;12.012;2022-12-18T08:17:55;19.83;;;5.17;;
19599;SDS011;9947;57.722;12.012;2022-12-18T08:20:22;19.97;;;6.10;;
19599;SDS011;9947;57.722;12.012;2022-12-18T08:22:49;22.53;;;5.80;;
19599;SDS011;9947;57.722;12.012;2022-12-18T08:25:16;15.93;;;6.07;;
19599;SDS011;9947;57.722;12.012;2022-12-18T08:27:43;14.47;;;5.63;;
19599;SDS011;9947;57.722;12.012;2022-12-18T08:30:11;17.30;;;5.70;;
19599;SDS011;9947;57.722;12.012;2022-12-18T08:32:39;17.70;;;6.33;;
19599;SDS011;9947;57.722;12.012;2022-12-18T08:35:07;21.40;;;6.20;;
19599;SDS011;9947;57.722;12.012;2022-12-18T08:37:36;18.80;;;5.87;;
19599;SDS011;9947;57.722;12.012;2022-12-18T08:40:04;19.50;;;5.90;;
19599;SDS011;9947;57.722;12.012;2022-12-18T08:42:41;23.33;;;6.10;;
19599;SDS011;9947;57.722;12.012;2022-12-18T08:45:25;20.90;;;5.73;;
19599;SDS011;9947;57.722;12.012;2022-12-18T08:47:54;14.50;;;5.80;;
19599;SDS011;9947;57.722;12.012;2022-12-18T08:50:23;18.20;;;5.87;;
19599;SDS011;9947;57.722;12.012;2022-12-18T08:52:52;19.53;;;5.90;;
19599;SDS011;9947;57.722;12.012;2022-12-18T08:55:18;18.67;;;6.67;;
19599;SDS011;9947;57.722;12.012;2022-12-18T08:57:47;26.53;;;7.00;;
19599;SDS011;9947;57.722;12.012;2022-12-18T09:00:14;20.07;;;6.63;;
19599;SDS011;9947;57.722;12.012;2022-12-18T09:02:42;18.43;;;6.60;;
19599;SDS011;9947;57.722;12.012;2022-12-18T09:05:10;15.33;;;6.37;;
19599;SDS011;9947;57.722;12.012;2022-12-18T09:07:37;23.03;;;6.70;;
19599;SDS011;9947;57.722;12.012;2022-12-18T09:10:05;23.53;;;7.27;;
19599;SDS011;9947;57.722;12.012;2022-12-18T09:12:32;25.60;;;7.40;;
19599;SDS011;9947;57.722;12.012;2022-12-18T09:14:59;25.63;;;7.20;;
19599;SDS011;9947;57.722;12.012;2022-12-18T09:17:26;16.00;;;6.43;;
19599;SDS011;9947;57.722;12.012;2022-12-18T09:19:53;19.80;;;6.47;;
19599;SDS011;9947;57.722;12.012;2022-12-18T09:22:21;17.40;;;6.70;;
19599;SDS011;9947;57.722;12.012;2022-12-18T09:24:48;21.33;;;6.77;;
19599;SDS011;9947;57.722;12.012;2022-12-18T09:27:15;25.97;;;7.30;;
19599;SDS011;9947;57.722;12.012;2022-12-18T09:29:42;20.47;;;7.30;;
19599;SDS011;9947;57.722;12.012;2022-12-18T09:32:09;22.27;;;7.10;;
19599;SDS011;9947;57.722;12.012;2022-12-18T09:34:36;20.77;;;7.17;;
19599;SDS011;9947;57.722;12.012;2022-12-18T09:37:03;16.80;;;7.60;;
19599;SDS011;9947;57.722;12.012;2022-12-18T09:39:33;20.97;;;7.77;;
19599;SDS011;9947;57.722;12.012;2022-12-18T09:42:03;24.90;;;7.27;;
19599;SDS011;9947;57.722;12.012;2022-12-18T09:44:32;20.97;;;6.70;;
19599;SDS011;9947;57.722;12.012;2022-12-18T09:47:03;18.73;;;6.57;;
19599;SDS011;9947;57.722;12.012;2022-12-18T09:49:36;20.40;;;6.97;;
19599;SDS011;9947;57.722;12.012;2022-12-18T09:52:09;22.90;;;6.73;;
19599;SDS011;9947;57.722;12.012;2022-12-18T09:54:44;20.60;;;6.93;;
19599;SDS011;9947;57.722;12.012;2022-12-18T09:57:15;17.73;;;6.57;;
19599;SDS011;9947;57.722;12.012;2022-12-18T09:59:46;21.43;;;6.30;;
19599;SDS011;9947;57.722;12.012;2022-12-18T10:02:19;18.80;;;6.30;;
19599;SDS011;9947;57.722;12.012;2022-12-18T10:04:49;16.47;;;6.07;;
19599;SDS011;9947;57.722;12.012;2022-12-18T10:07:24;18.63;;;5.90;;
19599;SDS011;9947;57.722;12.012;2022-12-18T10:10:03;16.40;;;6.20;;
19599;SDS011;9947;57.722;12.012;2022-12-18T10:12:38;20.57;;;5.90;;
19599;SDS011;9947;57.722;12.012;2022-12-18T10:15:21;21.47;;;6.60;;
19599;SDS011;9947;57.722;12.012;2022-12-18T10:17:54;19.67;;;6.63;;
19599;SDS011;9947;57.722;12.012;2022-12-18T10:20:30;19.23;;;6.37;;
19599;SDS011;9947;57.722;12.012;2022-12-18T10:23:03;17.23;;;5.60;;
19599;SDS011;9947;57.722;12.012;2022-12-18T10:25:40;17.20;;;5.93;;
19599;SDS011;9947;57.722;12.012;2022-12-18T10:28:12;19.57;;;5.63;;
19599;SDS011;9947;57.722;12.012;2022-12-18T10:30:41;20.33;;;5.27;;
19599;SDS011;9947;57.722;12.012;2022-12-18T10:33:10;14.70;;;5.63;;
19599;SDS011;9947;57.722;12.012;2022-12-18T10:35:38;17.13;;;5.90;;
19599;SDS011;9947;57.722;12.012;2022-12-18T10:38:20;15.20;;;6.50;;
19599;SDS011;9947;57.722;12.012;2022-12-18T10:40:50;19.60;;;5.87;;
19599;SDS011;9947;57.722;12.012;2022-12-18T10:43:22;19.57;;;5.47;;
19599;SDS011;9947;57.722;12.012;2022-12-18T10:45:58;15.13;;;5.63;;
19599;SDS011;9947;57.722;12.012;2022-12-18T10:48:27;20.43;;;6.47;;
19599;SDS011;9947;57.722;12.012;2022-12-18T10:50:56;18.27;;;5.10;;
19599;SDS011;9947;57.722;12.012;2022-12-18T10:53:24;11.77;;;5.20;;
19599;SDS011;9947;57.722;12.012;2022-12-18T10:55:55;12.10;;;5.33;;
19599;SDS011;9947;57.722;12.012;2022-12-18T10:58:27;18.20;;;4.97;;
19599;SDS011;9947;57.722;12.012;2022-12-18T11:01:03;13.53;;;4.60;;
19599;SDS011;9947;57.722;12.012;2022-12-18T11:03:37;11.17;;;4.60;;
19599;SDS011;9947;57.722;12.012;2022-12-18T11:06:16;13.30;;;4.47;;
19599;SDS011;9947;57.722;12.012;2022-12-18T11:08:57;14.70;;;5.30;;
19599;SDS011;9947;57.722;12.012;2022-12-18T11:11:27;14.20;;;5.17;;
19599;SDS011;9947;57.722;12.012;2022-12-18T11:13:58;17.77;;;5.00;;
19599;SDS011;9947;57.722;12.012;2022-12-18T11:16:33;11.97;;;4.70;;
19599;SDS011;9947;57.722;12.012;2022-12-18T11:19:14;15.20;;;5.17;;
19599;SDS011;9947;57.722;12.012;2022-12-18T11:21:56;19.73;;;5.10;;
19599;SDS011;9947;57.722;12.012;2022-12-18T11:24:26;11.93;;;5.27;;
19599;SDS011;9947;57.722;12.012;2022-12-18T11:27:17;17.53;;;4.90;;
19599;SDS011;9947;57.722;12.012;2022-12-18T11:29:50;13.50;;;5.57;;
19599;SDS011;9947;57.722;12.012;2022-12-18T11:32:20;14.70;;;4.87;;
19599;SDS011;9947;57.722;12.012;2022-12-18T11:34:55;13.43;;;4.97;;
19599;SDS011;9947;57.722;12.012;2022-12-18T11:37:27;21.40;;;5.30;;
19599;SDS011;9947;57.722;12.012;2022-12-18T11:39:57;18.37;;;5.30;;
19599;SDS011;9947;57.722;12.012;2022-12-18T11:42:30;16.50;;;5.63;;
19599;SDS011;9947;57.722;12.012;2022-12-18T11:45:11;16.90;;;5.70;;
19599;SDS011;9947;57.722;12.012;2022-12-18T11:47:52;19.73;;;5.13;;
19599;SDS011;9947;57.722;12.012;2022-12-18T11:50:25;17.60;;;5.20;;
19599;SDS011;9947;57.722;12.012;2022-12-18T11:52:55;14.67;;;5.40;;
19599;SDS011;9947;57.722;12.012;2022-12-18T11:55:25;16.40;;;5.40;;
19599;SDS011;9947;57.722;12.012;2022-12-18T11:58:03;17.80;;;5.57;;
19599;SDS011;9947;57.722;12.012;2022-12-18T12:00:37;22.90;;;5.23;;
19599;SDS011;9947;57.722;12.012;2022-12-18T12:03:18;21.80;;;6.07;;
19599;SDS011;9947;57.722;12.012;2022-12-18T12:05:59;17.60;;;5.23;;
19599;SDS011;9947;57.722;12.012;2022-12-18T12:08:44;21.23;;;5.27;;
19599;SDS011;9947;57.722;12.012;2022-12-18T12:11:20;19.70;;;4.97;;
19599;SDS011;9947;57.722;12.012;2022-12-18T12:13:58;15.80;;;5.63;;
19599;SDS011;9947;57.722;12.012;2022-12-18T12:16:37;13.93;;;4.53;;
19599;SDS011;9947;57.722;12.012;2022-12-18T12:19:16;15.33;;;5.30;;
19599;SDS011;9947;57.722;12.012;2022-12-18T12:21:53;14.67;;;4.83;;
19599;SDS011;9947;57.722;12.012;2022-12-18T12:24:29;17.10;;;5.47;;
19599;SDS011;9947;57.722;12.012;2022-12-18T12:27:08;19.90;;;5.43;;
19599;SDS011;9947;57.722;12.012;2022-12-18T12:29:49;17.80;;;5.73;;
19599;SDS011;9947;57.722;12.012;2022-12-18T12:32:27;14.47;;;5.37;;
19599;SDS011;9947;57.722;12.012;2022-12-18T12:35:08;26.57;;;5.43;;
19599;SDS011;9947;57.722;12.012;2022-12-18T12:37:47;24.27;;;6.07;;
19599;SDS011;9947;57.722;12.012;2022-12-18T12:40:27;16.07;;;5.77;;
19599;SDS011;9947;57.722;12.012;2022-12-18T12:42:59;16.40;;;5.40;;
19599;SDS011;9947;57.722;12.012;2022-12-18T12:45:41;17.27;;;5.83;;
19599;SDS011;9947;57.722;12.012;2022-12-18T12:48:15;14.50;;;6.20;;
19599;SDS011;9947;57.722;12.012;2022-12-18T12:50:45;21.00;;;5.80;;
19599;SDS011;9947;57.722;12.012;2022-12-18T12:53:16;16.17;;;5.43;;
19599;SDS011;9947;57.722;12.012;2022-12-18T12:55:48;16.30;;;5.43;;
19599;SDS011;9947;57.722;12.012;2022-12-18T12:58:18;15.77;;;5.20;;
19599;SDS011;9947;57.722;12.012;2022-12-18T13:00:58;17.17;;;5.30;;
19599;SDS011;9947;57.722;12.012;2022-12-18T13:03:35;16.13;;;5.20;;
19599;SDS011;9947;57.722;12.012;2022-12-18T13:06:16;18.17;;;5.37;;
19599;SDS011;9947;57.722;12.012;2022-12-18T13:08:52;18.73;;;5.43;;
19599;SDS011;9947;57.722;12.012;2022-12-18T13:11:31;15.97;;;4.53;;
19599;SDS011;9947;57.722;12.012;2022-12-18T13:14:20;15.97;;;4.80;;
19599;SDS011;9947;57.722;12.012;2022-12-18T13:16:51;15.43;;;5.53;;
19599;SDS011;9947;57.722;12.012;2022-12-18T13:19:25;13.47;;;4.97;;
19599;SDS011;9947;57.722;12.012;2022-12-18T13:21:53;14.60;;;4.23;;
19599;SDS011;9947;57.722;12.012;2022-12-18T13:24:23;11.53;;;4.43;;
19599;SDS011;9947;57.722;12.012;2022-12-18T13:26:52;17.10;;;4.47;;
19599;SDS011;9947;57.722;12.012;2022-12-18T13:32:22;17.00;;;4.47;;
19599;SDS011;9947;57.722;12.012;2022-12-18T13:37:53;18.60;;;5.30;;
19599;SDS011;9947;57.722;12.012;2022-12-18T13:43:29;13.03;;;4.70;;
19599;SDS011;9947;57.722;12.012;2022-12-18T13:46:02;12.00;;;4.57;;
19599;SDS011;9947;57.722;12.012;2022-12-18T13:48:50;15.27;;;4.93;;
19599;SDS011;9947;57.722;12.012;2022-12-18T13:51:20;15.73;;;5.03;;
19599;SDS011;9947;57.722;12.012;2022-12-18T13:53:48;18.50;;;5.10;;
19599;SDS011;9947;57.722;12.012;2022-12-18T13:56:17;14.40;;;4.93;;
19599;SDS011;9947;57.722;12.012;2022-12-18T13:59:03;17.70;;;5.30;;
19599;SDS011;9947;57.722;12.012;2022-12-18T14:01:41;16.73;;;5.40;;
19599;SDS011;9947;57.722;12.012;2022-12-18T14:04:12;15.53;;;4.90;;
19599;SDS011;9947;57.722;12.012;2022-12-18T14:06:44;12.03;;;4.83;;
19599;SDS011;9947;57.722;12.012;2022-12-18T14:09:13;13.83;;;5.30;;
19599;SDS011;9947;57.722;12.012;2022-12-18T14:11:45;14.00;;;5.13;;
19599;SDS011;9947;57.722;12.012;2022-12-18T14:14:13;15.87;;;5.20;;
19599;SDS011;9947;57.722;12.012;2022-12-18T14:16:42;19.13;;;6.23;;
19599;SDS011;9947;57.722;12.012;2022-12-18T14:19:13;12.90;;;5.27;;
19599;SDS011;9947;57.722;12.012;2022-12-18T14:21:45;18.20;;;5.70;;
19599;SDS011;9947;57.722;12.012;2022-12-18T14:24:14;18.03;;;5.67;;
19599;SDS011;9947;57.722;12.012;2022-12-18T14:26:42;18.57;;;5.37;;
19599;SDS011;9947;57.722;12.012;2022-12-18T14:29:25;11.13;;;5.17;;
19599;SDS011;9947;57.722;12.012;2022-12-18T14:32:07;18.27;;;5.23;;
19599;SDS011;9947;57.722;12.012;2022-12-18T14:34:38;24.97;;;5.67;;
19599;SDS011;9947;57.722;12.012;2022-12-18T14:37:05;17.23;;;5.47;;
19599;SDS011;9947;57.722;12.012;2022-12-18T14:39:35;23.23;;;6.00;;
19599;SDS011;9947;57.722;12.012;2022-12-18T14:42:02;16.53;;;5.17;;
19599;SDS011;9947;57.722;12.012;2022-12-18T14:44:30;16.00;;;5.67;;
19599;SDS011;9947;57.722;12.012;2022-12-18T14:46:56;17.80;;;5.77;;
19599;SDS011;9947;57.722;12.012;2022-12-18T14:49:24;16.83;;;5.47;;
19599;SDS011;9947;57.722;12.012;2022-12-18T14:51:57;16.10;;;5.20;;
19599;SDS011;9947;57.722;12.012;2022-12-18T14:54:25;19.23;;;6.37;;
19599;SDS011;9947;57.722;12.012;2022-12-18T14:56:55;20.00;;;6.97;;
19599;SDS011;9947;57.722;12.012;2022-12-18T14:59:26;25.90;;;7.60;;